createdAt,value
2023-03-24T04:45:51.666Z,18.33
2023-03-24T04:48:56.098Z,16.60
2023-03-24T04:51:58.728Z,16.65
2023-03-24T04:55:03.160Z,15.87
2023-03-24T04:58:06.813Z,17.37
2023-03-24T05:01:09.758Z,17.30
2023-03-24T05:04:12.833Z,15.88
2023-03-24T05:07:15.732Z,15.93
2023-03-24T05:10:21.786Z,16.85
2023-03-24T05:13:25.230Z,15.05
2023-03-24T05:16:28.018Z,16.03
2023-03-24T05:19:31.203Z,15.63
2023-03-24T05:22:33.607Z,15.40
2023-03-24T05:25:36.388Z,18.37
2023-03-24T05:28:38.989Z,17.17
2023-03-24T05:31:42.435Z,15.27
2023-03-24T05:34:44.842Z,16.60
2023-03-24T05:37:47.828Z,16.33
2023-03-24T05:40:50.493Z,15.70
2023-03-24T05:43:53.465Z,15.77
2023-03-24T05:46:56.215Z,17.70
2023-03-24T05:49:59.131Z,16.52
2023-03-24T05:53:01.750Z,18.10
2023-03-24T05:56:06.014Z,17.00
2023-03-24T05:59:11.798Z,18.10
2023-03-24T06:02:15.941Z,15.85
2023-03-24T06:05:20.228Z,17.95
2023-03-24T06:08:24.649Z,16.65
2023-03-24T06:11:28.578Z,14.87
2023-03-24T06:14:33.743Z,14.98
2023-03-24T06:17:38.242Z,15.60
2023-03-24T06:20:41.467Z,14.65
2023-03-24T06:23:46.283Z,15.10
2023-03-24T06:26:50.582Z,15.75
2023-03-24T06:29:53.375Z,14.45
2023-03-24T06:32:56.330Z,13.52
2023-03-24T06:36:00.042Z,14.55
2023-03-24T06:39:03.929Z,14.65
2023-03-24T06:42:07.135Z,14.63
2023-03-24T06:45:10.799Z,13.82
2023-03-24T06:48:13.758Z,14.68
2023-03-24T06:51:17.370Z,15.27
2023-03-24T06:54:20.448Z,15.70
2023-03-24T06:57:23.054Z,14.57
2023-03-24T07:00:32.437Z,14.45
2023-03-24T07:06:58.686Z,15.18
2023-03-24T07:10:06.496Z,14.82
2023-03-24T07:13:09.716Z,14.10
2023-03-24T07:16:12.849Z,15.00
2023-03-24T07:22:19.531Z,15.48
2023-03-24T07:25:24.057Z,15.30
2023-03-24T07:28:27.166Z,15.80
2023-03-24T07:31:32.801Z,14.43
2023-03-24T07:34:36.952Z,14.90
2023-03-24T07:37:39.769Z,15.40
2023-03-24T07:40:42.687Z,15.05
2023-03-24T07:46:49.530Z,15.57
2023-03-24T07:49:52.439Z,16.17
2023-03-24T07:52:59.386Z,14.90
2023-03-24T07:56:03.648Z,14.07
2023-03-24T08:02:17.950Z,13.98
2023-03-24T08:05:23.081Z,15.85
2023-03-24T08:08:26.222Z,12.98
2023-03-24T08:11:31.626Z,14.32
2023-03-24T08:14:33.976Z,11.85
2023-03-24T08:17:37.189Z,11.88
2023-03-24T08:20:39.539Z,12.73
2023-03-24T08:23:42.806Z,15.07
2023-03-24T08:26:46.739Z,13.40
2023-03-24T08:29:49.777Z,12.20
2023-03-24T08:32:58.133Z,13.07
2023-03-24T08:36:01.302Z,12.50
2023-03-24T08:39:07.717Z,11.88
2023-03-24T08:42:10.620Z,12.35
2023-03-24T08:45:14.193Z,12.23
2023-03-24T08:48:17.021Z,12.60
2023-03-24T08:51:19.531Z,10.70
2023-03-24T08:57:26.515Z,10.18
2023-03-24T09:00:29.453Z,10.20
2023-03-24T09:03:32.058Z,9.55
2023-03-24T09:06:34.772Z,7.75
2023-03-24T09:09:37.406Z,8.57
2023-03-24T09:12:41.814Z,8.63
2023-03-24T09:15:49.826Z,8.77
2023-03-24T09:18:52.765Z,12.57
2023-03-24T09:21:55.623Z,8.68
2023-03-24T09:24:58.278Z,8.48
2023-03-24T09:28:02.499Z,8.60
2023-03-24T09:31:06.378Z,8.20
2023-03-24T09:34:08.968Z,11.35
2023-03-24T09:37:11.623Z,9.25
2023-03-24T09:40:31.857Z,10.52
2023-03-24T09:43:38.434Z,9.82
2023-03-24T09:46:49.421Z,12.05
2023-03-24T09:49:52.797Z,9.50
2023-03-24T09:53:04.873Z,9.52
2023-03-24T09:56:14.576Z,9.43
2023-03-24T09:59:24.646Z,9.77
2023-03-24T10:02:29.858Z,9.65
2023-03-24T10:05:40.739Z,10.35
2023-03-24T10:08:50.349Z,8.98
2023-03-24T10:12:14.899Z,9.30
2023-03-24T10:15:43.145Z,11.88
2023-03-24T10:19:11.482Z,9.63
2023-03-24T10:22:16.756Z,9.95
2023-03-24T10:25:47.580Z,9.93
2023-03-24T10:29:06.065Z,9.57
2023-03-24T10:32:38.785Z,8.85
2023-03-24T10:35:57.310Z,9.25
2023-03-24T10:39:09.534Z,9.05
2023-03-24T10:42:28.284Z,6.47
2023-03-24T10:45:36.433Z,6.65
2023-03-24T10:48:48.668Z,6.97
2023-03-24T10:52:03.678Z,5.30
2023-03-24T10:55:07.542Z,4.90
2023-03-24T10:58:40.999Z,4.50
2023-03-24T11:01:43.857Z,5.35
2023-03-24T11:05:15.559Z,4.93
2023-03-24T11:08:17.905Z,5.43
2023-03-24T11:11:20.495Z,5.22
2023-03-24T11:14:26.481Z,4.78
2023-03-24T11:17:29.234Z,4.57
2023-03-24T11:20:38.518Z,6.18
2023-03-24T11:23:45.671Z,4.32
2023-03-24T11:27:02.014Z,4.85
2023-03-24T11:30:05.731Z,5.55
2023-03-24T11:33:13.540Z,4.35
2023-03-24T11:36:32.793Z,5.50
2023-03-24T11:39:35.741Z,4.47
2023-03-24T11:42:47.094Z,4.90
2023-03-24T11:46:10.536Z,4.50
2023-03-24T11:49:18.226Z,3.58
2023-03-24T11:52:29.137Z,4.87
2023-03-24T11:55:42.969Z,4.10
2023-03-24T11:58:53.330Z,3.33
2023-03-24T12:02:01.415Z,3.22
2023-03-24T12:05:21.424Z,2.62
2023-03-24T12:08:37.450Z,3.92
2023-03-24T12:12:08.031Z,5.35
2023-03-24T12:15:27.165Z,2.58
2023-03-24T12:18:43.670Z,4.35
2023-03-24T12:21:58.057Z,4.43
2023-03-24T12:25:30.536Z,2.37
2023-03-24T12:28:55.493Z,2.50
2023-03-24T12:32:01.007Z,2.20
2023-03-24T12:35:29.054Z,3.62
2023-03-24T12:38:55.930Z,3.15
2023-03-24T12:42:12.568Z,2.72
2023-03-24T12:45:15.344Z,2.10
2023-03-24T12:48:23.643Z,2.17
2023-03-24T12:51:47.550Z,2.30
2023-03-24T12:55:14.307Z,4.05
2023-03-24T12:58:35.870Z,2.60
2023-03-24T13:02:01.231Z,2.40
2023-03-24T13:05:08.770Z,2.87
2023-03-24T13:08:32.222Z,3.03
2023-03-24T13:11:44.338Z,2.20
2023-03-24T13:15:13.661Z,2.92
2023-03-24T13:18:43.803Z,3.05
2023-03-24T13:21:47.907Z,2.53
2023-03-24T13:24:52.402Z,2.58
2023-03-24T13:27:59.144Z,2.70
2023-03-24T13:31:04.424Z,1.85
2023-03-24T13:34:21.586Z,2.58
2023-03-24T13:37:29.163Z,1.85
2023-03-24T13:40:38.437Z,2.35
2023-03-24T13:43:49.843Z,3.67
2023-03-24T13:47:15.657Z,2.05
2023-03-24T13:50:18.616Z,2.47
2023-03-24T13:53:32.611Z,2.78
2023-03-24T13:56:39.402Z,2.47
2023-03-24T14:00:08.614Z,5.97
2023-03-24T14:03:36.601Z,2.78
2023-03-24T14:06:50.861Z,2.62
2023-03-24T14:10:17.262Z,2.10
2023-03-24T14:13:21.218Z,2.97
2023-03-24T14:16:37.013Z,3.42
2023-03-24T14:19:43.334Z,2.62
2023-03-24T14:22:49.931Z,3.35
2023-03-24T14:25:55.358Z,2.55
2023-03-24T14:28:58.523Z,3.50
2023-03-24T14:32:17.173Z,2.60
2023-03-24T14:36:06.703Z,2.40
2023-03-24T14:39:20.632Z,2.37
2023-03-24T14:42:30.685Z,3.03
2023-03-24T14:45:40.903Z,2.17
2023-03-24T14:48:58.525Z,3.40
2023-03-24T14:52:16.930Z,1.70
2023-03-24T14:55:21.739Z,2.78
2023-03-24T14:58:35.656Z,3.12
2023-03-24T15:01:45.490Z,3.10
2023-03-24T15:05:25.624Z,2.70
2023-03-24T15:08:28.301Z,2.30
2023-03-24T15:11:34.387Z,2.70
2023-03-24T15:14:38.269Z,2.10
2023-03-24T15:17:43.635Z,3.08
2023-03-24T15:20:46.437Z,2.37
2023-03-24T15:23:49.117Z,2.62
2023-03-24T15:27:08.816Z,2.90
2023-03-24T15:30:15.759Z,2.22
2023-03-24T15:33:19.029Z,2.85
2023-03-24T15:39:28.248Z,2.80
2023-03-24T15:42:30.928Z,3.22
2023-03-24T15:45:33.538Z,2.80
2023-03-24T15:48:37.764Z,3.08
2023-03-24T15:51:57.081Z,3.17
2023-03-24T15:55:03.789Z,2.83
2023-03-24T15:58:26.528Z,3.03
2023-03-24T16:01:36.426Z,2.57
2023-03-24T16:04:40.759Z,2.53
2023-03-24T16:07:43.415Z,2.97
2023-03-24T16:13:58.931Z,3.42
2023-03-24T16:17:05.989Z,3.03
2023-03-24T16:20:19.552Z,2.92
2023-03-24T16:23:22.144Z,2.87
2023-03-24T16:26:27.381Z,3.43
2023-03-24T16:29:30.375Z,3.15
2023-03-24T16:32:32.729Z,2.70
2023-03-24T16:35:36.104Z,2.97
